createdAt,value
2018-09-12T00:01:08.023Z,5.80
2018-09-12T00:03:36.183Z,4.70
2018-09-12T00:06:04.280Z,4.43
2018-09-12T00:08:32.427Z,4.90
2018-09-12T00:11:00.463Z,5.47
2018-09-12T00:13:28.577Z,5.07
2018-09-12T00:15:56.679Z,3.40
2018-09-12T00:18:24.788Z,5.37
2018-09-12T00:20:52.895Z,4.73
2018-09-12T00:23:21.010Z,6.80
2018-09-12T00:25:49.104Z,6.28
2018-09-12T00:28:17.224Z,8.50
2018-09-12T00:30:45.347Z,4.42
2018-09-12T00:33:13.463Z,5.75
2018-09-12T00:35:41.555Z,5.35
2018-09-12T00:38:09.633Z,3.58
2018-09-12T00:40:37.696Z,5.00
2018-09-12T00:43:05.801Z,5.10
2018-09-12T00:45:34.923Z,5.17
2018-09-12T00:48:03.023Z,4.63
2018-09-12T00:50:31.113Z,3.93
2018-09-12T00:52:59.212Z,4.83
2018-09-12T00:55:27.287Z,4.83
2018-09-12T00:57:55.403Z,3.90
2018-09-12T01:00:23.550Z,9.33
2018-09-12T01:02:51.659Z,5.77
2018-09-12T01:05:19.739Z,5.00
2018-09-12T01:07:47.830Z,6.50
2018-09-12T01:10:15.924Z,3.63
2018-09-12T01:12:45.071Z,4.27
2018-09-12T01:15:13.146Z,4.03
2018-09-12T01:17:41.250Z,4.50
2018-09-12T01:20:09.349Z,4.80
2018-09-12T01:22:37.706Z,5.63
2018-09-12T01:25:06.186Z,4.15
2018-09-12T01:27:34.293Z,6.17
2018-09-12T01:30:02.415Z,4.40
2018-09-12T01:32:30.512Z,6.30
2018-09-12T01:34:58.595Z,6.47
2018-09-12T01:37:26.836Z,5.73
2018-09-12T01:39:54.928Z,7.97
2018-09-12T01:42:23.020Z,6.33
2018-09-12T01:44:51.255Z,5.40
2018-09-12T01:47:19.343Z,8.07
2018-09-12T01:49:47.793Z,3.33
2018-09-12T01:52:15.912Z,3.35
2018-09-12T01:54:43.988Z,4.93
2018-09-12T01:57:12.069Z,7.00
2018-09-12T01:59:40.119Z,4.07
2018-09-12T02:02:08.238Z,5.00
2018-09-12T02:04:36.345Z,4.37
2018-09-12T02:07:04.435Z,4.27
2018-09-12T02:09:32.528Z,8.03
2018-09-12T02:12:00.604Z,6.57
2018-09-12T02:14:28.691Z,4.77
2018-09-12T02:16:56.774Z,4.03
2018-09-12T02:19:24.864Z,4.77
2018-09-12T02:21:53.105Z,4.03
2018-09-12T02:24:21.248Z,4.87
2018-09-12T02:26:49.338Z,3.93
2018-09-12T02:29:17.468Z,5.03
2018-09-12T02:31:45.576Z,5.43
2018-09-12T02:34:13.643Z,4.97
2018-09-12T02:36:41.740Z,6.83
2018-09-12T02:39:09.874Z,4.80
2018-09-12T02:41:38.661Z,8.28
2018-09-12T02:44:06.824Z,6.70
2018-09-12T02:46:34.954Z,5.90
2018-09-12T02:49:03.239Z,3.87
2018-09-12T02:51:31.363Z,5.07
2018-09-12T02:53:59.459Z,3.90
2018-09-12T02:56:27.591Z,4.60
2018-09-12T02:58:55.751Z,6.20
2018-09-12T03:01:23.925Z,12.73
2018-09-12T03:03:52.035Z,5.43
2018-09-12T03:06:20.267Z,4.43
2018-09-12T03:08:48.504Z,4.58
2018-09-12T03:11:16.693Z,5.93
2018-09-12T03:13:44.795Z,4.90
2018-09-12T03:16:12.905Z,5.17
2018-09-12T03:18:41.074Z,5.60
2018-09-12T03:21:09.950Z,5.92
2018-09-12T03:23:38.010Z,7.33
2018-09-12T03:26:06.123Z,7.20
2018-09-12T03:28:34.232Z,5.60
2018-09-12T03:31:02.646Z,4.30
2018-09-12T03:33:30.623Z,4.80
2018-09-12T03:35:58.734Z,7.43
2018-09-12T03:38:26.855Z,3.67
2018-09-12T03:40:54.970Z,10.33
2018-09-12T03:43:23.126Z,7.60
2018-09-12T03:45:51.292Z,3.50
2018-09-12T03:48:19.398Z,5.00
2018-09-12T03:50:47.500Z,5.90
2018-09-12T03:53:15.610Z,5.80
2018-09-12T03:55:43.715Z,3.77
2018-09-12T03:58:11.860Z,5.20
2018-09-12T04:00:41.030Z,3.73
2018-09-12T04:03:09.184Z,6.73
2018-09-12T04:05:37.282Z,4.70
2018-09-12T04:08:05.414Z,5.50
2018-09-12T04:10:33.522Z,6.85
2018-09-12T04:13:01.696Z,5.77
2018-09-12T04:15:29.812Z,8.48
2018-09-12T04:17:57.924Z,3.97
2018-09-12T04:20:26.027Z,6.10
2018-09-12T04:22:54.152Z,7.58
2018-09-12T04:25:22.259Z,6.22
2018-09-12T04:27:50.377Z,6.40
2018-09-12T04:30:18.470Z,7.87
2018-09-12T04:32:46.568Z,6.73
2018-09-12T04:35:14.726Z,4.10
2018-09-12T04:37:42.827Z,5.27
2018-09-12T04:40:10.943Z,3.97
2018-09-12T04:42:39.045Z,19.90
2018-09-12T04:45:07.191Z,5.30
2018-09-12T04:47:35.287Z,5.93
2018-09-12T04:50:03.432Z,5.67
2018-09-12T04:52:31.611Z,5.67
2018-09-12T04:54:59.722Z,4.83
2018-09-12T04:57:27.792Z,4.60
2018-09-12T04:59:55.905Z,7.93
2018-09-12T05:02:24.000Z,6.23
2018-09-12T05:04:52.191Z,5.83
2018-09-12T05:07:20.319Z,5.20
2018-09-12T05:09:48.416Z,8.73
2018-09-12T05:12:16.532Z,7.33
2018-09-12T05:14:44.640Z,6.10
2018-09-12T05:17:12.736Z,10.57
2018-09-12T05:19:40.846Z,6.47
2018-09-12T05:22:09.220Z,6.90
2018-09-12T05:24:37.330Z,6.65
2018-09-12T05:27:05.607Z,4.73
2018-09-12T05:29:33.723Z,7.17
2018-09-12T05:32:01.917Z,5.87
2018-09-12T05:34:30.047Z,11.83
2018-09-12T05:36:58.169Z,8.97
2018-09-12T05:39:26.293Z,7.03
2018-09-12T05:41:54.385Z,6.87
2018-09-12T05:44:22.471Z,10.80
2018-09-12T05:46:50.555Z,7.87
2018-09-12T05:49:18.628Z,9.37
2018-09-12T05:51:46.718Z,9.00
2018-09-12T05:54:15.768Z,10.48
2018-09-12T05:56:43.850Z,8.07
2018-09-12T05:59:11.966Z,8.70
2018-09-12T06:01:40.041Z,9.07
2018-09-12T06:04:08.155Z,8.80
2018-09-12T06:06:36.289Z,8.07
2018-09-12T06:09:06.052Z,7.27
2018-09-12T06:11:34.229Z,10.70
2018-09-12T06:14:02.404Z,8.70
2018-09-12T06:16:30.435Z,9.77
2018-09-12T06:18:58.566Z,10.47
2018-09-12T06:21:26.924Z,8.67
2018-09-12T06:23:55.024Z,7.20
2018-09-12T06:26:23.124Z,4.67
2018-09-12T06:28:51.200Z,6.37
2018-09-12T06:31:19.295Z,6.30
2018-09-12T06:33:47.572Z,6.47
2018-09-12T06:36:15.687Z,6.03
2018-09-12T06:38:43.847Z,9.37
2018-09-12T06:41:11.875Z,6.90
2018-09-12T06:43:40.088Z,5.37
2018-09-12T06:46:08.219Z,9.50
2018-09-12T06:48:36.303Z,8.83
2018-09-12T06:51:04.406Z,8.00
2018-09-12T06:53:32.490Z,11.80
2018-09-12T06:56:00.587Z,11.60
2018-09-12T06:58:28.675Z,10.83
2018-09-12T07:00:56.818Z,11.43
2018-09-12T07:03:24.850Z,9.20
2018-09-12T07:05:52.920Z,9.23
2018-09-12T07:08:21.067Z,11.00
2018-09-12T07:10:49.163Z,7.57
2018-09-12T07:13:17.266Z,6.20
2018-09-12T07:15:45.443Z,11.53
2018-09-12T07:18:13.560Z,6.90
2018-09-12T07:20:41.678Z,10.37
2018-09-12T07:23:09.795Z,14.00
2018-09-12T07:25:37.947Z,8.57
2018-09-12T07:28:06.140Z,11.87
2018-09-12T07:30:34.263Z,9.37
2018-09-12T07:33:02.280Z,8.93
2018-09-12T07:35:30.357Z,8.60
2018-09-12T07:37:58.475Z,11.30
2018-09-12T07:40:26.630Z,8.77
2018-09-12T07:42:54.719Z,8.53
2018-09-12T07:45:22.797Z,8.37
2018-09-12T07:47:51.009Z,7.10
2018-09-12T07:50:19.095Z,8.63
2018-09-12T07:52:47.186Z,7.83
2018-09-12T07:55:15.273Z,9.90
2018-09-12T07:57:43.346Z,6.77
2018-09-12T08:00:11.515Z,9.50
2018-09-12T08:02:39.546Z,7.83
2018-09-12T08:05:07.733Z,10.98
2018-09-12T08:07:35.731Z,8.85
2018-09-12T08:10:03.902Z,6.35
2018-09-12T08:12:32.000Z,5.55
2018-09-12T08:15:01.010Z,9.13
2018-09-12T08:17:29.127Z,6.30
2018-09-12T08:19:57.234Z,6.50
2018-09-12T08:22:25.465Z,6.73
2018-09-12T08:24:53.561Z,7.90
2018-09-12T08:27:21.631Z,4.67
2018-09-12T08:29:49.723Z,6.03
2018-09-12T08:32:17.871Z,4.30
2018-09-12T08:34:45.971Z,4.33
2018-09-12T08:37:14.071Z,4.70
2018-09-12T08:39:42.151Z,4.13
2018-09-12T08:42:10.259Z,5.13
2018-09-12T08:44:38.334Z,3.80
2018-09-12T08:47:06.451Z,4.80
2018-09-12T08:49:34.545Z,4.53
2018-09-12T08:52:02.991Z,4.33
2018-09-12T08:54:31.095Z,7.90
2018-09-12T08:56:59.220Z,5.80
2018-09-12T08:59:27.311Z,4.35
2018-09-12T09:02:02.119Z,4.37
2018-09-12T09:04:30.224Z,5.57
2018-09-12T09:06:58.306Z,4.37
2018-09-12T09:09:26.400Z,4.83
2018-09-12T09:11:55.001Z,3.80
2018-09-12T09:14:23.104Z,3.97
2018-09-12T09:16:51.187Z,4.20
2018-09-12T09:19:19.296Z,3.37
2018-09-12T09:21:47.364Z,5.53
2018-09-12T09:24:15.499Z,3.47
2018-09-12T09:26:43.613Z,3.20
2018-09-12T09:29:11.739Z,3.40
2018-09-12T09:31:39.856Z,7.20
2018-09-12T09:34:07.932Z,4.93
2018-09-12T09:36:36.004Z,5.40
2018-09-12T09:39:06.243Z,4.07
2018-09-12T09:41:34.362Z,3.72
2018-09-12T09:44:02.528Z,2.80
2018-09-12T09:46:30.606Z,6.40
2018-09-12T09:48:58.731Z,4.00
2018-09-12T09:51:26.837Z,3.80
2018-09-12T09:53:54.938Z,3.17
2018-09-12T09:56:23.112Z,3.37
2018-09-12T09:58:51.221Z,3.12
2018-09-12T10:01:24.656Z,3.20
2018-09-12T10:03:58.187Z,2.73
2018-09-12T10:07:04.180Z,4.65
2018-09-12T10:09:33.477Z,4.00
2018-09-12T10:12:02.577Z,5.27
2018-09-12T10:14:30.669Z,3.07
2018-09-12T10:16:58.801Z,3.30
2018-09-12T10:19:26.875Z,3.98
2018-09-12T10:21:54.992Z,4.53
2018-09-12T10:24:23.216Z,3.07
2018-09-12T10:26:51.284Z,3.03
2018-09-12T10:29:19.462Z,3.00
2018-09-12T10:31:47.984Z,2.70
2018-09-12T10:34:16.120Z,2.92
2018-09-12T10:36:44.224Z,4.92
2018-09-12T10:39:13.725Z,2.43
2018-09-12T10:41:42.616Z,2.50
2018-09-12T10:44:10.927Z,2.20
2018-09-12T10:46:39.237Z,2.60
2018-09-12T10:49:07.756Z,2.13
2018-09-12T10:51:35.839Z,2.10
2018-09-12T10:54:03.948Z,1.60
2018-09-12T10:56:38.927Z,2.22
2018-09-12T10:59:07.134Z,2.47
2018-09-12T11:01:35.228Z,2.30
2018-09-12T11:04:03.339Z,3.87
2018-09-12T11:06:31.443Z,2.67
2018-09-12T11:08:59.531Z,3.03
2018-09-12T11:11:28.299Z,2.22
2018-09-12T11:13:57.664Z,3.10
2018-09-12T11:16:25.780Z,2.50
2018-09-12T11:18:53.970Z,2.43
2018-09-12T11:21:22.075Z,2.07
2018-09-12T11:23:50.271Z,4.03
2018-09-12T11:26:18.281Z,4.33
2018-09-12T11:28:46.393Z,2.67
2018-09-12T11:31:14.515Z,2.40
2018-09-12T11:33:43.018Z,5.03
2018-09-12T11:36:12.161Z,3.27
2018-09-12T11:38:40.305Z,3.93
2018-09-12T11:41:08.674Z,2.30
2018-09-12T11:43:36.757Z,2.40
2018-09-12T11:46:04.887Z,3.13
2018-09-12T11:48:32.970Z,2.50
2018-09-12T11:51:01.096Z,5.80
2018-09-12T11:53:29.529Z,2.92
2018-09-12T11:55:57.641Z,6.13
2018-09-12T11:58:25.776Z,7.40
2018-09-12T12:00:53.998Z,4.00
2018-09-12T12:03:22.119Z,5.50
2018-09-12T12:05:50.211Z,3.37
2018-09-12T12:08:18.372Z,2.33
2018-09-12T12:10:46.465Z,2.70
2018-09-12T12:13:14.615Z,3.80
2018-09-12T12:15:42.763Z,2.40
2018-09-12T12:18:10.868Z,5.97
2018-09-12T12:20:40.037Z,2.87
2018-09-12T12:23:08.213Z,4.67
2018-09-12T12:25:36.271Z,2.87
2018-09-12T12:28:04.391Z,2.33
2018-09-12T12:30:32.519Z,2.63
2018-09-12T12:33:00.690Z,2.40
2018-09-12T12:35:28.903Z,3.13
2018-09-12T12:37:56.952Z,2.00
2018-09-12T12:40:25.040Z,1.90
2018-09-12T12:42:53.148Z,2.20
2018-09-12T12:45:21.265Z,2.43
2018-09-12T12:47:49.363Z,2.80
2018-09-12T12:50:17.451Z,4.53
2018-09-12T12:52:45.675Z,3.73
2018-09-12T12:55:13.837Z,1.67
2018-09-12T12:57:41.955Z,3.53
2018-09-12T13:00:10.208Z,3.67
2018-09-12T13:02:38.317Z,3.52
2018-09-12T13:05:06.492Z,3.50
2018-09-12T13:07:34.591Z,2.58
2018-09-12T13:10:02.850Z,1.65
2018-09-12T13:12:31.964Z,2.27
2018-09-12T13:15:00.064Z,3.87
2018-09-12T13:17:28.164Z,1.73
2018-09-12T13:19:56.310Z,3.60
2018-09-12T13:22:24.445Z,2.50
2018-09-12T13:24:52.594Z,2.40
2018-09-12T13:27:20.802Z,2.50
2018-09-12T13:29:48.906Z,2.83
2018-09-12T13:32:16.991Z,2.23
2018-09-12T13:34:45.105Z,2.97
2018-09-12T13:37:13.207Z,3.27
2018-09-12T13:39:41.324Z,3.67
2018-09-12T13:42:09.437Z,2.60
2018-09-12T13:44:37.560Z,2.13
2018-09-12T13:47:05.733Z,3.20
2018-09-12T13:49:33.846Z,2.10
2018-09-12T13:52:01.940Z,3.20
2018-09-12T13:54:30.088Z,3.60
2018-09-12T13:56:58.209Z,4.20
2018-09-12T13:59:26.312Z,2.62
2018-09-12T14:01:54.411Z,2.30
2018-09-12T14:04:23.204Z,2.77
2018-09-12T14:06:52.207Z,2.53
2018-09-12T14:09:20.327Z,3.43
2018-09-12T14:11:48.417Z,2.30
2018-09-12T14:14:17.128Z,3.03
2018-09-12T14:16:45.336Z,2.20
2018-09-12T14:19:13.452Z,2.33
2018-09-12T14:21:41.580Z,3.80
2018-09-12T14:24:09.735Z,2.37
2018-09-12T14:26:37.831Z,3.13
2018-09-12T14:29:05.931Z,3.80
2018-09-12T14:31:34.548Z,3.45
2018-09-12T14:34:02.667Z,2.47
2018-09-12T14:36:30.852Z,3.33
2018-09-12T14:38:59.026Z,3.60
2018-09-12T14:41:27.100Z,3.27
2018-09-12T14:43:55.226Z,1.80
2018-09-12T14:46:23.336Z,2.70
2018-09-12T14:48:58.193Z,2.27
2018-09-12T14:51:26.291Z,2.20
2018-09-12T14:53:54.508Z,2.00
2018-09-12T14:56:22.624Z,2.73
2018-09-12T14:58:51.008Z,1.90
2018-09-12T15:01:19.099Z,3.70
2018-09-12T15:03:47.271Z,3.13
2018-09-12T15:06:15.394Z,3.10
2018-09-12T15:08:43.490Z,4.10
2018-09-12T15:11:11.599Z,4.10
2018-09-12T15:13:39.704Z,2.70
2018-09-12T15:16:07.820Z,2.80
2018-09-12T15:18:36.123Z,2.33
2018-09-12T15:21:04.295Z,1.80
2018-09-12T15:23:32.425Z,2.60
2018-09-12T15:26:00.539Z,2.30
2018-09-12T15:28:28.617Z,3.47
2018-09-12T15:30:56.728Z,2.53
2018-09-12T15:33:24.824Z,2.33
2018-09-12T15:35:52.999Z,4.47
2018-09-12T15:38:21.103Z,3.63
2018-09-12T15:40:49.279Z,2.80
2018-09-12T15:43:17.468Z,3.10
2018-09-12T15:45:45.656Z,2.93
2018-09-12T15:48:13.736Z,3.07
2018-09-12T15:50:41.903Z,3.33
2018-09-12T15:53:10.016Z,2.40
2018-09-12T15:55:38.177Z,2.95
2018-09-12T15:58:06.271Z,3.10
2018-09-12T16:00:34.365Z,4.40
2018-09-12T16:03:02.515Z,3.37
2018-09-12T16:05:30.724Z,2.80
2018-09-12T16:07:59.197Z,4.10
2018-09-12T16:10:27.332Z,3.77
2018-09-12T16:12:55.432Z,3.23
2018-09-12T16:15:23.585Z,2.07
2018-09-12T16:17:51.646Z,2.20
2018-09-12T16:20:19.777Z,4.57
2018-09-12T16:22:47.911Z,3.83
2018-09-12T16:25:16.023Z,3.30
2018-09-12T16:27:44.123Z,2.20
2018-09-12T16:30:12.374Z,2.50
2018-09-12T16:32:40.543Z,2.00
2018-09-12T16:35:08.818Z,2.70
2018-09-12T16:37:36.924Z,2.70
2018-09-12T16:40:05.835Z,4.30
2018-09-12T16:42:34.243Z,4.23
2018-09-12T16:45:02.333Z,4.20
2018-09-12T16:47:30.448Z,3.83
2018-09-12T16:49:58.535Z,3.80
2018-09-12T16:52:26.635Z,3.97
2018-09-12T16:54:54.724Z,3.23
2018-09-12T16:57:22.841Z,2.23
2018-09-12T16:59:50.937Z,2.13
2018-09-12T17:02:19.088Z,3.10
2018-09-12T17:04:47.152Z,3.40
2018-09-12T17:07:15.250Z,2.40
2018-09-12T17:09:43.306Z,2.80
2018-09-12T17:12:11.379Z,2.93
2018-09-12T17:14:39.917Z,4.10
2018-09-12T17:17:08.051Z,4.20
2018-09-12T17:19:36.222Z,4.40
2018-09-12T17:22:04.344Z,3.23
2018-09-12T17:24:32.431Z,5.58
2018-09-12T17:27:00.501Z,4.43
2018-09-12T17:29:28.595Z,4.70
2018-09-12T17:31:56.686Z,3.37
2018-09-12T17:34:24.784Z,3.80
2018-09-12T17:36:52.896Z,3.70
2018-09-12T17:39:21.027Z,2.33
2018-09-12T17:41:49.143Z,2.47
2018-09-12T17:44:17.245Z,4.77
2018-09-12T17:46:45.347Z,3.93
2018-09-12T17:49:13.451Z,3.43
2018-09-12T17:51:41.559Z,2.73
2018-09-12T17:54:09.731Z,4.33
2018-09-12T17:56:37.840Z,2.97
2018-09-12T17:59:05.936Z,2.50
2018-09-12T18:01:34.027Z,3.57
2018-09-12T18:04:03.080Z,2.47
2018-09-12T18:06:31.216Z,2.27
2018-09-12T18:08:59.427Z,2.83
2018-09-12T18:11:27.969Z,3.17
2018-09-12T18:13:56.126Z,3.00
2018-09-12T18:16:25.123Z,2.70
2018-09-12T18:18:53.247Z,3.17
2018-09-12T18:21:21.619Z,3.17
2018-09-12T18:23:49.718Z,3.00
2018-09-12T18:26:17.851Z,1.83
2018-09-12T18:28:45.957Z,2.77
2018-09-12T18:31:14.159Z,3.43
2018-09-12T18:33:42.808Z,2.60
2018-09-12T18:36:11.063Z,3.60
2018-09-12T18:38:39.112Z,2.63
2018-09-12T18:41:07.219Z,2.77
2018-09-12T18:43:35.344Z,3.53
2018-09-12T18:46:03.443Z,2.00
2018-09-12T18:48:31.544Z,2.83
2018-09-12T18:51:03.813Z,3.20
2018-09-12T18:53:31.927Z,2.23
2018-09-12T18:56:00.045Z,2.97
2018-09-12T18:58:28.174Z,2.37
2018-09-12T19:00:56.284Z,8.17
2018-09-12T19:03:24.449Z,4.40
2018-09-12T19:05:52.490Z,2.72
2018-09-12T19:08:20.674Z,1.90
2018-09-12T19:10:49.227Z,3.20
2018-09-12T19:13:17.427Z,3.37
2018-09-12T19:15:45.690Z,4.23
2018-09-12T19:18:14.536Z,3.23
2018-09-12T19:20:42.879Z,3.70
2018-09-12T19:23:10.988Z,3.57
2018-09-12T19:25:39.148Z,3.00
2018-09-12T19:28:07.228Z,3.67
2018-09-12T19:30:35.390Z,4.80
2018-09-12T19:33:03.496Z,4.77
2018-09-12T19:35:31.621Z,2.97
2018-09-12T19:38:00.933Z,3.77
2018-09-12T19:40:29.040Z,5.93
2018-09-12T19:42:57.166Z,4.17
2018-09-12T19:45:25.352Z,5.95
2018-09-12T19:47:53.628Z,5.73
2018-09-12T19:50:21.733Z,2.60
2018-09-12T19:52:49.876Z,3.00
2018-09-12T19:55:18.014Z,4.60
2018-09-12T19:57:46.944Z,5.10
2018-09-12T20:00:17.280Z,2.20
2018-09-12T20:02:46.200Z,4.10
2018-09-12T20:05:14.339Z,2.30
2018-09-12T20:07:42.501Z,2.77
2018-09-12T20:10:10.643Z,3.27
2018-09-12T20:12:38.745Z,3.60
2018-09-12T20:15:07.000Z,3.50
2018-09-12T20:17:35.144Z,3.60
2018-09-12T20:20:03.256Z,3.50
2018-09-12T20:22:31.559Z,3.57
2018-09-12T20:24:59.671Z,7.07
2018-09-12T20:27:27.871Z,2.90
2018-09-12T20:29:55.999Z,3.90
2018-09-12T20:32:24.103Z,2.50
2018-09-12T20:34:52.306Z,4.15
2018-09-12T20:37:20.427Z,4.57
2018-09-12T20:39:48.546Z,3.23
2018-09-12T20:42:16.652Z,2.50
2018-09-12T20:44:44.784Z,5.37
2018-09-12T20:47:12.909Z,2.15
2018-09-12T20:49:41.218Z,4.20
2018-09-12T20:52:09.384Z,2.33
2018-09-12T20:54:37.523Z,6.33
2018-09-12T20:57:05.755Z,2.67
2018-09-12T20:59:33.959Z,6.87
2018-09-12T21:02:02.144Z,3.27
2018-09-12T21:04:30.245Z,3.10
2018-09-12T21:06:58.470Z,3.00
2018-09-12T21:09:26.563Z,3.90
2018-09-12T21:11:54.663Z,2.80
2018-09-12T21:14:22.779Z,2.90
2018-09-12T21:16:50.883Z,3.13
2018-09-12T21:19:19.602Z,4.90
2018-09-12T21:21:47.719Z,3.60
2018-09-12T21:24:15.962Z,5.00
2018-09-12T21:26:44.047Z,3.33
2018-09-12T21:29:12.135Z,4.90
2018-09-12T21:31:41.063Z,3.90
2018-09-12T21:34:09.198Z,2.65
2018-09-12T21:36:37.311Z,2.98
2018-09-12T21:39:08.447Z,3.62
2018-09-12T21:41:36.547Z,5.75
2018-09-12T21:44:04.656Z,3.40
2018-09-12T21:46:32.820Z,3.30
2018-09-12T21:49:00.932Z,3.53
2018-09-12T21:51:29.348Z,11.43
2018-09-12T21:53:57.510Z,3.13
2018-09-12T21:56:25.642Z,5.40
2018-09-12T21:58:53.819Z,4.83
2018-09-12T22:13:11.102Z,3.70
2018-09-12T22:15:39.426Z,5.23
2018-09-12T22:18:07.608Z,6.23
2018-09-12T22:20:35.747Z,3.63
2018-09-12T22:23:03.950Z,5.40
2018-09-12T22:25:32.078Z,3.30
2018-09-12T22:28:00.182Z,2.87
2018-09-12T22:30:28.271Z,3.13
2018-09-12T22:32:56.649Z,6.80
2018-09-12T22:35:24.746Z,5.07
2018-09-12T22:37:53.643Z,3.75
2018-09-12T22:40:21.727Z,3.87
2018-09-12T22:42:49.837Z,4.03
2018-09-12T22:45:17.945Z,5.20
2018-09-12T22:47:46.084Z,4.33
2018-09-12T22:50:14.187Z,8.50
2018-09-12T22:52:42.270Z,3.50
2018-09-12T22:55:10.367Z,4.60
2018-09-12T22:57:38.439Z,6.03
2018-09-12T23:00:07.934Z,8.10
2018-09-12T23:02:36.007Z,3.75
2018-09-12T23:05:04.096Z,4.47
2018-09-12T23:07:32.158Z,7.20
2018-09-12T23:10:00.232Z,6.03
2018-09-12T23:12:28.303Z,5.23
2018-09-12T23:14:56.384Z,3.77
2018-09-12T23:17:25.230Z,3.95
2018-09-12T23:19:53.543Z,4.40
2018-09-12T23:22:21.627Z,5.57
2018-09-12T23:24:49.712Z,3.80
2018-09-12T23:27:17.790Z,6.97
2018-09-12T23:29:45.903Z,6.17
2018-09-12T23:32:14.110Z,4.30
2018-09-12T23:34:42.207Z,4.50
2018-09-12T23:37:10.295Z,5.40
2018-09-12T23:39:38.460Z,3.30
2018-09-12T23:42:06.531Z,4.77
2018-09-12T23:44:34.614Z,6.37
2018-09-12T23:47:02.719Z,3.47
2018-09-12T23:49:30.780Z,3.40
2018-09-12T23:51:58.877Z,4.05
2018-09-12T23:54:26.966Z,4.78
2018-09-12T23:56:55.135Z,4.35
2018-09-12T23:59:23.223Z,4.83
